Time;durP1;ratioP1;P1;durP2;ratioP2;P2;SDS_P1;SDS_P2;PMS_P1;PMS_P2;Temp;Humidity;BMP_temperature;BMP_pressure;BME280_temperature;BME280_humidity;BME280_pressure;Samples;Min_cycle;Max_cycle;Signal;HPM_P1;HPM_P2
2024/01/06 00:01:15;;;;;;;20.43;17.57;;;;;;;-142.06;100.00;64312.41;5051000;28;20198;-79
2024/01/06 00:03:42;;;;;;;23.63;19.40;;;;;;;-142.06;100.00;64312.41;5051334;28;20218;-79
2024/01/06 00:06:13;;;;;;;21.87;18.10;;;;;;;-142.06;100.00;64312.41;5056026;28;20209;-80
2024/01/06 00:08:42;;;;;;;22.67;18.17;;;;;;;-142.06;100.00;64312.41;5051181;28;20193;-81
2024/01/06 00:11:09;;;;;;;20.73;17.97;;;;;;;-142.06;100.00;64312.41;5044398;28;20193;-80
2024/01/06 00:13:36;;;;;;;22.77;18.80;;;;;;;-142.06;100.00;64312.41;5052358;28;20224;-80
2024/01/06 00:16:03;;;;;;;21.60;17.83;;;;;;;-142.06;100.00;64312.41;5050509;28;20690;-81
2024/01/06 00:18:30;;;;;;;21.97;17.80;;;;;;;-142.06;100.00;64312.41;5023444;28;20255;-79
2024/01/06 00:20:57;;;;;;;23.40;18.90;;;;;;;-142.06;100.00;64312.41;5045071;28;20229;-80
2024/01/06 00:23:24;;;;;;;21.57;18.07;;;;;;;-142.06;100.00;64312.41;5051169;28;20197;-82
2024/01/06 00:25:51;;;;;;;20.07;17.77;;;;;;;-142.06;100.00;64312.41;5051486;28;20189;-80
2024/01/06 00:28:17;;;;;;;22.10;17.73;;;;;;;-142.06;100.00;64312.41;5047973;28;20204;-80
2024/01/06 00:30:45;;;;;;;22.73;18.90;;;;;;;-142.06;100.00;64312.41;5051392;28;20209;-79
2024/01/06 00:33:12;;;;;;;24.37;19.33;;;;;;;-142.06;100.00;64312.41;5055689;28;20245;-81
2024/01/06 00:35:39;;;;;;;23.60;18.43;;;;;;;-142.06;100.00;64312.41;5054000;28;20213;-79
2024/01/06 00:38:06;;;;;;;22.00;19.33;;;;;;;-142.06;100.00;64312.41;5054629;28;20657;-79
2024/01/06 00:40:33;;;;;;;22.47;19.40;;;;;;;-142.06;100.00;64312.41;5055111;28;20204;-79
2024/01/06 00:43:00;;;;;;;20.40;18.20;;;;;;;-142.06;100.00;64312.41;5055624;28;20212;-80
2024/01/06 00:45:27;;;;;;;23.60;18.93;;;;;;;-142.06;100.00;64312.41;5034365;28;20201;-80
2024/01/06 00:47:53;;;;;;;23.03;19.13;;;;;;;-142.06;100.00;64312.41;5058234;28;20279;-79
2024/01/06 00:50:20;;;;;;;22.03;18.33;;;;;;;-142.06;100.00;64312.41;5056381;28;20200;-78
2024/01/06 00:52:47;;;;;;;23.23;19.00;;;;;;;-142.06;100.00;64312.41;5056045;28;20213;-77
2024/01/06 00:55:14;;;;;;;22.63;19.37;;;;;;;-142.06;100.00;64312.41;5054856;28;20193;-79
2024/01/06 00:57:40;;;;;;;22.33;18.60;;;;;;;-142.06;100.00;64312.41;5055043;28;20193;-78
2024/01/06 01:00:08;;;;;;;23.53;18.70;;;;;;;-142.06;100.00;64312.41;5054888;28;20190;-78
2024/01/06 01:02:34;;;;;;;23.27;18.13;;;;;;;-142.06;100.00;64312.41;5054636;28;20197;-78
2024/01/06 01:05:09;;;;;;;24.00;19.03;;;;;;;-142.06;100.00;64312.41;5055141;28;20692;-77
2024/01/06 01:07:36;;;;;;;22.43;18.50;;;;;;;-142.06;100.00;64312.41;5054251;28;20198;-78
2024/01/06 01:10:04;;;;;;;21.50;19.13;;;;;;;-142.06;100.00;64312.41;5056673;28;20193;-78
2024/01/06 01:12:31;;;;;;;24.13;19.63;;;;;;;-142.06;100.00;64312.41;5054118;28;20224;-79
2024/01/06 01:14:58;;;;;;;23.37;19.40;;;;;;;-142.06;100.00;64312.41;5054719;28;20217;-77
2024/01/06 01:17:25;;;;;;;21.27;18.83;;;;;;;-142.06;100.00;64312.41;5054236;28;20201;-78
2024/01/06 01:19:52;;;;;;;20.80;18.23;;;;;;;-142.06;100.00;64312.41;5054457;28;20225;-77
2024/01/06 01:22:18;;;;;;;26.50;19.30;;;;;;;-142.06;100.00;64312.41;5052959;28;20688;-77
2024/01/06 01:24:45;;;;;;;25.87;19.23;;;;;;;-142.06;100.00;64312.41;5054293;28;20201;-78
2024/01/06 01:27:12;;;;;;;22.20;19.67;;;;;;;-142.06;100.00;64312.41;5054273;28;20203;-79
2024/01/06 01:29:39;;;;;;;23.73;19.43;;;;;;;-142.06;100.00;64312.41;5054144;28;20292;-77
2024/01/06 01:32:06;;;;;;;23.77;20.07;;;;;;;-142.06;100.00;64312.41;5054043;28;20193;-79
2024/01/06 01:34:33;;;;;;;22.70;19.30;;;;;;;-142.06;100.00;64312.41;5054000;28;20212;-76
2024/01/06 01:37:00;;;;;;;23.27;19.23;;;;;;;-142.06;100.00;64312.41;5052497;28;20287;-76
2024/01/06 01:39:28;;;;;;;23.57;20.00;;;;;;;-142.06;100.00;64312.41;5055369;28;20193;-78
2024/01/06 01:41:55;;;;;;;23.73;19.93;;;;;;;-142.06;100.00;64312.41;5054489;28;20197;-80
2024/01/06 01:44:21;;;;;;;27.80;20.97;;;;;;;-142.06;100.00;64312.41;5055987;28;20185;-78
2024/01/06 01:46:48;;;;;;;23.93;20.17;;;;;;;-142.06;100.00;64312.41;5055463;28;20237;-78
2024/01/06 01:49:15;;;;;;;25.23;21.33;;;;;;;-142.06;100.00;64312.41;5056210;28;20650;-79
2024/01/06 01:51:44;;;;;;;24.07;21.10;;;;;;;-142.06;100.00;64312.41;5056143;28;20189;-79
2024/01/06 01:54:11;;;;;;;21.63;19.33;;;;;;;-142.06;100.00;64312.41;5056433;28;20304;-79
2024/01/06 01:56:39;;;;;;;25.60;20.70;;;;;;;-142.06;100.00;64312.41;5056589;28;20200;-77
2024/01/06 01:59:11;;;;;;;24.27;19.80;;;;;;;-142.06;100.00;64312.41;5056190;28;20193;-78
2024/01/06 02:01:39;;;;;;;23.57;19.87;;;;;;;-142.06;100.00;64312.41;5056717;28;20202;-78
2024/01/06 02:04:08;;;;;;;23.53;20.50;;;;;;;-142.06;100.00;64312.41;5055731;28;20221;-76
2024/01/06 02:06:34;;;;;;;24.23;20.97;;;;;;;-142.06;100.00;64312.41;5056599;28;20193;-78
2024/01/06 02:09:02;;;;;;;24.73;19.87;;;;;;;-142.06;100.00;64312.41;5055689;28;20281;-77
2024/01/06 02:11:29;;;;;;;26.77;21.50;;;;;;;-142.06;100.00;64312.41;5052231;28;20197;-77
2024/01/06 02:13:55;;;;;;;26.07;21.67;;;;;;;-142.06;100.00;64312.41;5053858;28;20221;-77
2024/01/06 02:16:22;;;;;;;27.03;21.33;;;;;;;-142.06;100.00;64312.41;5053252;28;20190;-77
2024/01/06 02:18:49;;;;;;;24.63;20.50;;;;;;;-142.06;100.00;64312.41;5053414;28;20194;-79
2024/01/06 02:21:17;;;;;;;26.10;21.53;;;;;;;-142.06;100.00;64312.41;5053446;28;20632;-78
2024/01/06 02:23:44;;;;;;;27.30;21.83;;;;;;;-142.06;100.00;64312.41;5049392;28;20201;-78
2024/01/06 02:26:11;;;;;;;27.70;20.97;;;;;;;-142.06;100.00;64312.41;5057493;28;20185;-78
2024/01/06 02:28:38;;;;;;;27.37;21.27;;;;;;;-142.06;100.00;64312.41;5053229;28;20196;-77
2024/01/06 02:31:05;;;;;;;24.90;20.23;;;;;;;-142.06;100.00;64312.41;5052238;28;20244;-77
2024/01/06 02:33:32;;;;;;;27.10;22.03;;;;;;;-142.06;100.00;64312.41;5034680;28;20219;-78
2024/01/06 02:35:59;;;;;;;29.03;23.00;;;;;;;-142.06;100.00;64312.41;5051355;28;20708;-77
2024/01/06 02:38:25;;;;;;;26.30;22.17;;;;;;;-142.06;100.00;64312.41;5051690;28;20186;-78
2024/01/06 02:40:52;;;;;;;25.77;22.67;;;;;;;-142.06;100.00;64312.41;5051873;28;20190;-77
2024/01/06 02:43:19;;;;;;;28.97;22.90;;;;;;;-142.06;100.00;64312.41;5051679;28;20677;-76
2024/01/06 02:45:46;;;;;;;25.57;22.17;;;;;;;-142.06;100.00;64312.41;5050069;28;20206;-77
2024/01/06 02:48:13;;;;;;;28.87;23.20;;;;;;;-142.06;100.00;64312.41;5045169;28;20221;-78
2024/01/06 02:50:40;;;;;;;28.47;23.47;;;;;;;-142.06;100.00;64312.41;5048808;28;20197;-78
2024/01/06 02:53:09;;;;;;;28.80;23.83;;;;;;;-142.06;100.00;64312.41;5050756;28;20218;-76
2024/01/06 02:55:36;;;;;;;30.13;23.00;;;;;;;-142.06;100.00;64312.41;5052389;28;20185;-79
2024/01/06 02:58:03;;;;;;;25.53;22.53;;;;;;;-142.06;100.00;64312.41;5051186;28;20205;-76
2024/01/06 03:00:30;;;;;;;26.73;22.80;;;;;;;-142.06;100.00;64312.41;5052451;28;20193;-77
2024/01/06 03:02:56;;;;;;;27.20;22.20;;;;;;;-142.06;100.00;64312.41;5053780;28;20198;-76
2024/01/06 03:05:23;;;;;;;30.90;23.77;;;;;;;-142.06;100.00;64312.41;5049880;28;20197;-78
2024/01/06 03:07:50;;;;;;;28.60;22.57;;;;;;;-142.06;100.00;64312.41;5055155;28;20202;-77
2024/01/06 03:10:17;;;;;;;27.73;22.97;;;;;;;-142.06;100.00;64312.41;5052259;28;20662;-77
2024/01/06 03:12:43;;;;;;;26.90;22.20;;;;;;;-142.06;100.00;64312.41;5049703;28;20658;-77
2024/01/06 03:15:11;;;;;;;25.60;22.60;;;;;;;-142.06;100.00;64312.41;5052532;28;20190;-77
2024/01/06 03:17:38;;;;;;;29.77;22.80;;;;;;;-142.06;100.00;64312.41;5050964;28;21438;-78
2024/01/06 03:20:05;;;;;;;32.37;24.67;;;;;;;-142.06;100.00;64312.41;5049571;28;20193;-77
2024/01/06 03:22:33;;;;;;;27.20;23.93;;;;;;;-142.06;100.00;64312.41;5052089;28;20185;-78
2024/01/06 03:25:00;;;;;;;29.97;24.17;;;;;;;-142.06;100.00;64312.41;5051997;28;20201;-78
2024/01/06 03:27:27;;;;;;;31.63;24.70;;;;;;;-142.06;100.00;64312.41;5051928;28;20202;-77
2024/01/06 03:29:54;;;;;;;30.67;23.57;;;;;;;-142.06;100.00;64312.41;5052122;28;20205;-78
2024/01/06 03:32:21;;;;;;;32.00;24.30;;;;;;;-142.06;100.00;64312.41;5054554;28;20185;-78
2024/01/06 03:34:48;;;;;;;30.83;25.30;;;;;;;-142.06;100.00;64312.41;5051611;28;20255;-80
2024/01/06 03:37:15;;;;;;;30.13;25.47;;;;;;;-142.06;100.00;64312.41;5051933;28;20263;-78
2024/01/06 03:39:42;;;;;;;30.40;25.17;;;;;;;-142.06;100.00;64312.41;5051770;28;20194;-77
2024/01/06 03:42:08;;;;;;;34.30;26.10;;;;;;;-142.06;100.00;64312.41;5052078;28;20236;-77
2024/01/06 03:44:35;;;;;;;34.67;26.43;;;;;;;-142.06;100.00;64312.41;5051549;28;20205;-77
2024/01/06 03:47:02;;;;;;;32.27;25.87;;;;;;;-142.06;100.00;64312.41;5051787;28;20697;-76
2024/01/06 03:49:29;;;;;;;33.23;25.60;;;;;;;-142.06;100.00;64312.41;5051619;28;20239;-79
2024/01/06 03:51:56;;;;;;;31.30;25.53;;;;;;;-142.06;100.00;64312.41;5050199;28;20193;-77
2024/01/06 03:54:23;;;;;;;32.10;26.30;;;;;;;-142.06;100.00;64312.41;5052351;28;20217;-79
2024/01/06 03:56:50;;;;;;;32.50;24.97;;;;;;;-142.06;100.00;64312.41;5052854;28;20204;-77
2024/01/06 03:59:16;;;;;;;31.70;25.63;;;;;;;-142.06;100.00;64312.41;5051456;28;20212;-78
2024/01/06 04:01:43;;;;;;;33.37;25.97;;;;;;;-142.06;100.00;64312.41;5052543;28;20193;-78
2024/01/06 04:04:10;;;;;;;32.07;26.30;;;;;;;-142.06;100.00;64312.41;5051812;28;20193;-78
2024/01/06 04:06:37;;;;;;;32.73;26.57;;;;;;;-142.06;100.00;64312.41;5052839;28;20201;-77
2024/01/06 04:09:05;;;;;;;32.77;27.47;;;;;;;-142.06;100.00;64312.41;5051104;28;20194;-78
2024/01/06 04:11:31;;;;;;;32.57;26.63;;;;;;;-142.06;100.00;64312.41;5051816;28;20189;-77
2024/01/06 04:13:58;;;;;;;35.53;28.13;;;;;;;-142.06;100.00;64312.41;5050098;28;20224;-78
2024/01/06 04:16:27;;;;;;;32.17;27.63;;;;;;;-142.06;100.00;64312.41;5051241;28;20194;-78
2024/01/06 04:18:53;;;;;;;32.33;26.93;;;;;;;-142.06;100.00;64312.41;5051380;28;20277;-77
2024/01/06 04:21:22;;;;;;;35.20;28.47;;;;;;;-142.06;100.00;64312.41;5050499;28;20189;-77
2024/01/06 04:23:49;;;;;;;32.60;27.90;;;;;;;-142.06;100.00;64312.41;5051180;28;20201;-78
2024/01/06 04:26:16;;;;;;;36.27;27.27;;;;;;;-142.06;100.00;64312.41;5051182;28;20197;-78
2024/01/06 04:28:42;;;;;;;33.03;27.83;;;;;;;-142.06;100.00;64312.41;5054096;28;20193;-78
2024/01/06 04:31:09;;;;;;;35.23;27.90;;;;;;;-142.06;100.00;64312.41;5052664;28;20665;-77
2024/01/06 04:33:39;;;;;;;36.90;28.27;;;;;;;-142.06;100.00;64312.41;5048857;28;20267;-77
2024/01/06 04:36:07;;;;;;;33.60;27.87;;;;;;;-142.06;100.00;64312.41;5050145;28;20634;-78
2024/01/06 04:38:34;;;;;;;33.87;27.77;;;;;;;-142.06;100.00;64312.41;5051927;28;20197;-78
2024/01/06 04:41:00;;;;;;;35.40;27.20;;;;;;;-142.06;100.00;64312.41;5052861;28;20193;-78
2024/01/06 04:43:27;;;;;;;36.37;28.03;;;;;;;-142.06;100.00;64312.41;5051350;28;20272;-77
2024/01/06 04:45:54;;;;;;;34.53;27.80;;;;;;;-142.06;100.00;64312.41;5055227;28;20194;-77
2024/01/06 04:48:21;;;;;;;33.87;27.80;;;;;;;-142.06;100.00;64312.41;5053932;28;20228;-78
2024/01/06 04:50:49;;;;;;;35.67;28.47;;;;;;;-142.06;100.00;64312.41;5053497;28;20201;-79
2024/01/06 04:53:16;;;;;;;34.47;28.37;;;;;;;-142.06;100.00;64312.41;5052095;28;20214;-78
2024/01/06 04:55:42;;;;;;;35.47;29.40;;;;;;;-142.06;100.00;64312.41;5050601;28;20243;-78
2024/01/06 04:58:09;;;;;;;35.80;28.33;;;;;;;-142.06;100.00;64312.41;5051170;28;20186;-76
2024/01/06 05:00:36;;;;;;;35.07;30.30;;;;;;;-142.06;100.00;64312.41;5050653;28;20198;-79
2024/01/06 05:03:03;;;;;;;36.63;28.70;;;;;;;-142.06;100.00;64312.41;5050115;28;20189;-78
2024/01/06 05:05:30;;;;;;;36.10;28.77;;;;;;;-142.06;100.00;64312.41;5048163;28;20193;-78
2024/01/06 05:07:58;;;;;;;34.60;29.27;;;;;;;-142.06;100.00;64312.41;5050040;28;20185;-77
2024/01/06 05:10:24;;;;;;;36.27;29.87;;;;;;;-142.06;100.00;64312.41;5050804;28;20209;-78
2024/01/06 05:12:51;;;;;;;36.37;29.60;;;;;;;-142.06;100.00;64312.41;5053561;28;20201;-78
2024/01/06 05:15:18;;;;;;;38.63;29.07;;;;;;;-142.06;100.00;64312.41;5052215;28;20225;-78
2024/01/06 05:17:45;;;;;;;34.73;28.97;;;;;;;-142.06;100.00;64312.41;5054703;28;20197;-80
2024/01/06 05:20:12;;;;;;;36.13;29.50;;;;;;;-142.06;100.00;64312.41;5053097;28;20197;-77
2024/01/06 05:22:39;;;;;;;34.50;28.80;;;;;;;-142.06;100.00;64312.41;5054557;28;20217;-77
2024/01/06 05:25:05;;;;;;;38.03;29.83;;;;;;;-142.06;100.00;64312.41;5059463;28;20198;-79
2024/01/06 05:27:32;;;;;;;35.57;29.60;;;;;;;-142.06;100.00;64312.41;5055316;28;20531;-79
2024/01/06 05:29:59;;;;;;;35.97;29.40;;;;;;;-142.06;100.00;64312.41;5055455;28;20729;-78
2024/01/06 05:32:26;;;;;;;36.07;28.57;;;;;;;-142.06;100.00;64312.41;5056831;28;20206;-79
2024/01/06 05:34:52;;;;;;;35.53;29.00;;;;;;;-142.06;100.00;64312.41;5059183;28;20217;-77
2024/01/06 05:37:20;;;;;;;39.03;30.07;;;;;;;-142.06;100.00;64312.41;5055413;28;20201;-77
2024/01/06 05:39:46;;;;;;;36.13;29.40;;;;;;;-142.06;100.00;64312.41;5056625;28;20205;-79
2024/01/06 05:42:15;;;;;;;35.77;28.63;;;;;;;-142.06;100.00;64312.41;5052852;28;20224;-78
2024/01/06 05:44:42;;;;;;;37.80;28.47;;;;;;;-142.06;100.00;64312.41;5050712;28;20198;-80
2024/01/06 05:47:08;;;;;;;40.00;29.17;;;;;;;-142.06;100.00;64312.41;5053706;28;20241;-78
2024/01/06 05:49:35;;;;;;;39.10;29.97;;;;;;;-142.06;100.00;64312.41;5052729;28;20288;-77
2024/01/06 05:52:02;;;;;;;36.07;28.63;;;;;;;-142.06;100.00;64312.41;5053884;28;20193;-77
2024/01/06 05:54:29;;;;;;;36.77;28.17;;;;;;;-142.06;100.00;64312.41;5053354;28;20224;-76
2024/01/06 05:56:56;;;;;;;36.47;29.10;;;;;;;-142.06;100.00;64312.41;5053724;28;20247;-79
2024/01/06 05:59:22;;;;;;;34.63;28.17;;;;;;;-142.06;100.00;64312.41;5053778;28;20201;-77
2024/01/06 06:01:49;;;;;;;36.73;28.90;;;;;;;-142.06;100.00;64312.41;5053783;28;20247;-76
2024/01/06 06:04:16;;;;;;;35.80;27.97;;;;;;;-142.06;100.00;64312.41;5058123;28;20189;-78
2024/01/06 06:06:43;;;;;;;36.87;29.67;;;;;;;-142.06;100.00;64312.41;5053737;28;20267;-77
2024/01/06 06:09:10;;;;;;;39.23;30.33;;;;;;;-142.06;100.00;64312.41;5053730;28;20205;-76
2024/01/06 06:11:37;;;;;;;37.47;29.73;;;;;;;-142.06;100.00;64312.41;5064545;28;20247;-78
2024/01/06 06:14:06;;;;;;;38.00;27.63;;;;;;;-142.06;100.00;64312.41;5053746;28;20218;-76
2024/01/06 06:16:33;;;;;;;36.83;29.23;;;;;;;-142.06;100.00;64312.41;5052784;28;20228;-77
2024/01/06 06:19:00;;;;;;;35.93;28.30;;;;;;;-142.06;100.00;64312.41;5053553;28;20239;-77
2024/01/06 06:21:28;;;;;;;34.93;26.60;;;;;;;-142.06;100.00;64312.41;5055730;28;20190;-78
2024/01/06 06:23:55;;;;;;;36.17;28.33;;;;;;;-142.06;100.00;64312.41;5053669;28;20213;-78
2024/01/06 06:26:21;;;;;;;33.83;26.03;;;;;;;-142.06;100.00;64312.41;5052222;28;20217;-77
2024/01/06 06:28:48;;;;;;;33.40;25.93;;;;;;;-142.06;100.00;64312.41;5053506;28;20268;-79
2024/01/06 06:31:15;;;;;;;34.50;25.90;;;;;;;-142.06;100.00;64312.41;5052761;28;20194;-77
2024/01/06 06:33:42;;;;;;;33.87;27.37;;;;;;;-142.06;100.00;64312.41;5052802;28;20201;-78
2024/01/06 06:36:10;;;;;;;35.23;27.67;;;;;;;-142.06;100.00;64312.41;5052252;28;20214;-76
2024/01/06 06:38:37;;;;;;;35.43;26.57;;;;;;;-142.06;100.00;64312.41;5053009;28;20201;-77
2024/01/06 06:41:03;;;;;;;34.10;27.13;;;;;;;-142.06;100.00;64312.41;5050725;28;20201;-76
2024/01/06 06:43:30;;;;;;;35.07;27.27;;;;;;;-142.06;100.00;64312.41;5051344;28;20202;-78
2024/01/06 06:45:57;;;;;;;36.07;27.50;;;;;;;-142.06;100.00;64312.41;5050572;28;20210;-78
2024/01/06 06:48:24;;;;;;;33.27;27.23;;;;;;;-142.06;100.00;64312.41;5052535;28;20201;-76
2024/01/06 06:50:51;;;;;;;35.07;27.50;;;;;;;-142.06;100.00;64312.41;5052495;28;20280;-78
2024/01/06 06:53:17;;;;;;;35.03;27.43;;;;;;;-142.06;100.00;64312.41;5053812;28;20201;-77
2024/01/06 06:55:44;;;;;;;33.27;27.07;;;;;;;-142.06;100.00;64312.41;5052896;28;20222;-78
2024/01/06 06:58:11;;;;;;;34.73;27.80;;;;;;;-142.06;100.00;64312.41;5053844;28;20202;-78
2024/01/06 07:00:39;;;;;;;32.53;26.77;;;;;;;-142.06;100.00;64312.41;5053318;28;20193;-77
2024/01/06 07:03:06;;;;;;;33.20;26.27;;;;;;;-142.06;100.00;64312.41;5053268;28;20190;-76
2024/01/06 07:05:33;;;;;;;32.33;26.20;;;;;;;-142.06;100.00;64312.41;5055490;28;20189;-76
2024/01/06 07:08:00;;;;;;;34.03;25.67;;;;;;;-142.06;100.00;64312.41;5052287;28;20221;-78
2024/01/06 07:10:27;;;;;;;30.30;25.30;;;;;;;-142.06;100.00;64312.41;5050590;28;20305;-79
2024/01/06 07:12:54;;;;;;;32.10;26.30;;;;;;;-142.06;100.00;64312.41;5050982;28;20271;-77
2024/01/06 07:15:21;;;;;;;32.57;26.13;;;;;;;-142.06;100.00;64312.41;5053125;28;20220;-78
2024/01/06 07:17:48;;;;;;;31.77;26.13;;;;;;;-142.06;100.00;64312.41;5049085;28;20293;-77
2024/01/06 07:20:15;;;;;;;30.17;25.40;;;;;;;-142.06;100.00;64312.41;5053698;28;20300;-78
2024/01/06 07:22:42;;;;;;;30.00;24.47;;;;;;;-142.06;100.00;64312.41;5034900;28;20197;-78
2024/01/06 07:25:11;;;;;;;28.10;23.87;;;;;;;-142.06;100.00;64312.41;5053510;28;20217;-76
2024/01/06 07:27:38;;;;;;;28.73;23.17;;;;;;;-142.06;100.00;64312.41;5054461;28;20589;-78
2024/01/06 07:30:08;;;;;;;29.70;24.00;;;;;;;-142.06;100.00;64312.41;5052563;28;20185;-78
2024/01/06 07:32:34;;;;;;;27.53;23.23;;;;;;;-142.06;100.00;64312.41;5069175;28;20662;-77
2024/01/06 07:35:02;;;;;;;29.67;22.80;;;;;;;-142.06;100.00;64312.41;5055318;28;20236;-78
2024/01/06 07:37:33;;;;;;;28.97;23.13;;;;;;;-142.06;100.00;64312.41;5051571;28;20205;-78
2024/01/06 07:40:00;;;;;;;29.67;23.17;;;;;;;-142.06;100.00;64312.41;5051943;28;20193;-77
2024/01/06 07:42:27;;;;;;;27.90;22.97;;;;;;;-142.06;100.00;64312.41;5051789;28;20189;-79
2024/01/06 07:44:53;;;;;;;29.97;23.57;;;;;;;-142.06;100.00;64312.41;5050838;28;20198;-80
2024/01/06 07:47:20;;;;;;;27.10;22.50;;;;;;;-142.06;100.00;64312.41;5051426;28;20312;-78
2024/01/06 07:49:48;;;;;;;27.40;23.07;;;;;;;-142.06;100.00;64312.41;5050615;28;20631;-78
2024/01/06 07:52:15;;;;;;;27.90;22.77;;;;;;;-142.06;100.00;64312.41;5051519;28;20193;-79
2024/01/06 07:54:41;;;;;;;26.23;22.70;;;;;;;-142.06;100.00;64312.41;5051976;28;20689;-78
2024/01/06 07:57:08;;;;;;;27.20;22.57;;;;;;;-142.06;100.00;64312.41;5050307;28;20224;-79
2024/01/06 07:59:35;;;;;;;26.53;22.50;;;;;;;-142.06;100.00;64312.41;5051996;28;20251;-77
2024/01/06 08:02:02;;;;;;;26.50;22.37;;;;;;;-142.06;100.00;64312.41;5051538;28;20190;-77
2024/01/06 08:04:29;;;;;;;29.10;23.37;;;;;;;-142.06;100.00;64312.41;5050802;28;20688;-79
2024/01/06 08:06:55;;;;;;;29.43;23.33;;;;;;;-142.06;100.00;64312.41;5051304;28;20196;-81
2024/01/06 08:09:23;;;;;;;26.40;22.43;;;;;;;-142.06;100.00;64312.41;5051996;28;20235;-77
2024/01/06 08:11:50;;;;;;;27.40;22.67;;;;;;;-142.06;100.00;64312.41;5051467;28;20197;-78
2024/01/06 08:14:17;;;;;;;27.73;23.17;;;;;;;-142.06;100.00;64312.41;5052803;28;20217;-78
2024/01/06 08:16:44;;;;;;;28.00;22.77;;;;;;;-142.06;100.00;64312.41;5049995;28;20216;-79
2024/01/06 08:19:11;;;;;;;28.87;23.17;;;;;;;-142.06;100.00;64312.41;5051665;28;20201;-79
2024/01/06 08:21:38;;;;;;;25.93;21.90;;;;;;;-142.06;100.00;64312.41;5051669;28;20200;-79
2024/01/06 08:24:05;;;;;;;29.10;22.73;;;;;;;-142.06;100.00;64312.41;5051787;28;20201;-79
2024/01/06 08:26:32;;;;;;;25.77;21.73;;;;;;;-142.06;100.00;64312.41;5051230;28;20189;-80
2024/01/06 08:28:58;;;;;;;28.93;23.50;;;;;;;-142.06;100.00;64312.41;5051758;28;20197;-77
2024/01/06 08:31:25;;;;;;;27.80;21.90;;;;;;;-142.06;100.00;64312.41;5051489;28;20197;-79
2024/01/06 08:33:52;;;;;;;28.03;22.63;;;;;;;-142.06;100.00;64312.41;5048986;28;20200;-79
2024/01/06 08:36:19;;;;;;;28.60;22.63;;;;;;;-142.06;100.00;64312.41;5047454;28;20233;-79
2024/01/06 08:38:46;;;;;;;26.23;21.77;;;;;;;-142.06;100.00;64312.41;5051057;28;20208;-79
2024/01/06 08:41:13;;;;;;;27.53;21.77;;;;;;;-142.06;100.00;64312.41;5049829;28;20677;-79
2024/01/06 08:43:39;;;;;;;29.30;22.17;;;;;;;-142.06;100.00;64312.41;5055934;28;20197;-81
2024/01/06 08:46:06;;;;;;;27.73;22.13;;;;;;;-142.06;100.00;64312.41;5053362;28;20302;-78
2024/01/06 08:48:33;;;;;;;28.07;22.10;;;;;;;-142.06;100.00;64312.41;5052405;28;20197;-79
2024/01/06 08:51:02;;;;;;;29.43;22.90;;;;;;;-142.06;100.00;64312.41;5054901;28;20216;-77
2024/01/06 08:53:28;;;;;;;26.70;21.70;;;;;;;-142.06;100.00;64312.41;5051335;28;20192;-78
2024/01/06 08:55:55;;;;;;;27.37;22.83;;;;;;;-142.06;100.00;64312.41;5051380;28;20217;-78
2024/01/06 08:58:22;;;;;;;26.77;21.27;;;;;;;-142.06;100.00;64312.41;5053716;28;20189;-77
2024/01/06 09:00:50;;;;;;;28.30;21.80;;;;;;;-142.06;100.00;64312.41;5053875;28;20194;-79
2024/01/06 09:03:17;;;;;;;25.30;20.53;;;;;;;-142.06;100.00;64312.41;5053330;28;20200;-77
2024/01/06 09:05:44;;;;;;;27.20;21.83;;;;;;;-142.06;100.00;64312.41;5051131;28;20732;-78
2024/01/06 09:08:11;;;;;;;25.37;20.97;;;;;;;-142.06;100.00;64312.41;5051929;28;20305;-78
2024/01/06 09:10:38;;;;;;;27.10;21.10;;;;;;;-142.06;100.00;64312.41;5053541;28;20670;-77
2024/01/06 09:13:05;;;;;;;26.97;20.50;;;;;;;-142.06;100.00;64312.41;5050849;28;20193;-77
2024/01/06 09:15:32;;;;;;;27.13;20.83;;;;;;;-142.06;100.00;64312.41;5049261;28;20252;-79
2024/01/06 09:17:59;;;;;;;23.50;20.10;;;;;;;-142.06;100.00;64312.41;5052170;28;20201;-77
2024/01/06 09:20:27;;;;;;;25.00;20.93;;;;;;;-142.06;100.00;64312.41;5053328;28;20197;-78
2024/01/06 09:22:54;;;;;;;25.27;20.90;;;;;;;-142.06;100.00;64312.41;5051575;28;20197;-79
2024/01/06 09:25:24;;;;;;;25.23;20.67;;;;;;;-142.06;100.00;64312.41;5053077;28;20205;-77
2024/01/06 09:27:52;;;;;;;25.17;20.47;;;;;;;-142.06;100.00;64312.41;5052787;28;20198;-78
2024/01/06 09:30:20;;;;;;;24.53;19.60;;;;;;;-142.06;100.00;64312.41;5047547;28;20217;-82
2024/01/06 09:32:47;;;;;;;25.10;20.00;;;;;;;-142.06;100.00;64312.41;5051803;28;20190;-77
2024/01/06 09:35:14;;;;;;;28.20;21.60;;;;;;;-142.06;100.00;64312.41;5068202;28;20312;-79
2024/01/06 09:37:41;;;;;;;26.23;20.73;;;;;;;-142.06;100.00;64312.41;5052583;28;20213;-77
2024/01/06 09:40:13;;;;;;;25.47;20.87;;;;;;;-142.06;100.00;64312.41;5052271;28;20251;-77
2024/01/06 09:42:40;;;;;;;24.50;20.10;;;;;;;-142.06;100.00;64312.41;5052027;28;20244;-78
2024/01/06 09:45:07;;;;;;;24.93;19.70;;;;;;;-142.06;100.00;64312.41;5052211;28;20654;-77
2024/01/06 09:47:35;;;;;;;25.97;20.37;;;;;;;-142.06;100.00;64312.41;5047325;28;20237;-76
2024/01/06 09:50:05;;;;;;;22.10;18.43;;;;;;;-142.06;100.00;64312.41;5045364;28;20286;-75
2024/01/06 09:52:33;;;;;;;20.60;17.20;;;;;;;-142.06;100.00;64312.41;5047256;28;20209;-76
2024/01/06 09:54:59;;;;;;;18.20;15.40;;;;;;;-142.06;100.00;64312.41;5054189;28;20287;-76
2024/01/06 09:57:26;;;;;;;15.07;13.43;;;;;;;-142.06;100.00;64312.41;5045798;28;20201;-77
2024/01/06 09:59:55;;;;;;;16.60;14.07;;;;;;;-142.06;100.00;64312.41;5054539;28;20198;-77
2024/01/06 10:02:22;;;;;;;13.87;12.43;;;;;;;-142.06;100.00;64312.41;5050880;28;20201;-80
2024/01/06 10:04:49;;;;;;;13.50;11.93;;;;;;;-142.06;100.00;64312.41;5053143;28;20221;-76
2024/01/06 10:07:17;;;;;;;12.50;11.30;;;;;;;-142.06;100.00;64312.41;5047488;28;20264;-77
2024/01/06 10:09:43;;;;;;;12.83;11.47;;;;;;;-142.06;100.00;64312.41;5050511;28;20458;-76
2024/01/06 10:12:10;;;;;;;12.37;10.20;;;;;;;-142.06;100.00;64312.41;5051614;28;20182;-77
2024/01/06 10:14:38;;;;;;;11.37;10.17;;;;;;;-142.06;100.00;64312.41;5052208;28;20251;-77
2024/01/06 10:17:08;;;;;;;11.17;10.07;;;;;;;-142.06;100.00;64312.41;5053408;28;20197;-76
2024/01/06 10:19:36;;;;;;;10.57;9.47;;;;;;;-142.06;100.00;64312.41;5055037;28;20243;-76
2024/01/06 10:22:03;;;;;;;10.37;9.37;;;;;;;-142.06;100.00;64312.41;5051141;28;20666;-77
2024/01/06 10:24:31;;;;;;;10.73;9.63;;;;;;;-142.06;100.00;64312.41;5051478;28;20193;-77
2024/01/06 10:26:58;;;;;;;11.33;10.10;;;;;;;-142.06;100.00;64312.41;5052420;28;20186;-76
2024/01/06 10:29:26;;;;;;;10.80;9.73;;;;;;;-142.06;100.00;64312.41;5051270;28;20195;-76
2024/01/06 10:31:54;;;;;;;10.57;9.43;;;;;;;-142.06;100.00;64312.41;5050344;28;20217;-75
2024/01/06 10:34:23;;;;;;;9.83;8.83;;;;;;;-142.06;100.00;64312.41;5051409;28;20210;-75
2024/01/06 10:36:51;;;;;;;9.53;8.53;;;;;;;-142.06;100.00;64312.41;5051028;28;20229;-79
2024/01/06 10:39:20;;;;;;;9.00;8.10;;;;;;;-142.06;100.00;64312.41;5050227;28;20201;-76
2024/01/06 10:41:49;;;;;;;9.47;8.47;;;;;;;-142.06;100.00;64312.41;5051117;28;20194;-75
2024/01/06 10:44:16;;;;;;;8.47;7.67;;;;;;;-142.06;100.00;64312.41;5050162;28;20222;-76
2024/01/06 10:46:44;;;;;;;8.43;7.60;;;;;;;-142.06;100.00;64312.41;5049599;28;20775;-76
2024/01/06 10:49:11;;;;;;;8.33;7.53;;;;;;;-142.06;100.00;64312.41;5051332;28;20212;-76
2024/01/06 10:51:38;;;;;;;7.73;7.03;;;;;;;-142.06;100.00;64312.41;5049663;28;20198;-75
2024/01/06 10:54:05;;;;;;;7.07;5.90;;;;;;;-142.06;100.00;64312.41;5051048;28;20194;-75